地図

経路データ

SID SEASON NUMBER BASIN SUBBASIN NAME ISO_TIME NATURE LAT LON WMO_WIND WMO_PRES WMO_AGENCY TRACK_TYPE DIST2LAND LANDFALL IFLAG USA_AGENCY USA_ATCF_ID USA_LAT USA_LON USA_RECORD USA_STATUS USA_WIND USA_PRES USA_SSHS USA_R34_NE USA_R34_SE USA_R34_SW USA_R34_NW USA_R50_NE USA_R50_SE USA_R50_SW USA_R50_NW USA_R64_NE USA_R64_SE USA_R64_SW USA_R64_NW USA_POCI USA_ROCI USA_RMW USA_EYE TOKYO_LAT TOKYO_LON TOKYO_GRADE TOKYO_WIND TOKYO_PRES TOKYO_R50_DIR TOKYO_R50_LONG TOKYO_R50_SHORT TOKYO_R30_DIR TOKYO_R30_LONG TOKYO_R30_SHORT TOKYO_LAND CMA_LAT CMA_LON CMA_CAT CMA_WIND CMA_PRES HKO_LAT HKO_LON HKO_CAT HKO_WIND HKO_PRES NEWDELHI_LAT NEWDELHI_LON NEWDELHI_GRADE NEWDELHI_WIND NEWDELHI_PRES NEWDELHI_CI NEWDELHI_DP NEWDELHI_POCI REUNION_LAT REUNION_LON REUNION_TYPE REUNION_WIND REUNION_PRES REUNION_TNUM REUNION_CI REUNION_RMW REUNION_R34_NE REUNION_R34_SE REUNION_R34_SW REUNION_R34_NW REUNION_R50_NE REUNION_R50_SE REUNION_R50_SW REUNION_R50_NW REUNION_R64_NE REUNION_R64_SE REUNION_R64_SW REUNION_R64_NW BOM_LAT BOM_LON BOM_TYPE BOM_WIND BOM_PRES BOM_TNUM BOM_CI BOM_RMW BOM_R34_NE BOM_R34_SE BOM_R34_SW BOM_R34_NW BOM_R50_NE BOM_R50_SE BOM_R50_SW BOM_R50_NW BOM_R64_NE BOM_R64_SE BOM_R64_SW BOM_R64_NW BOM_ROCI BOM_POCI BOM_EYE BOM_POS_METHOD BOM_PRES_METHOD NADI_LAT NADI_LON NADI_CAT NADI_WIND NADI_PRES WELLINGTON_LAT WELLINGTON_LON WELLINGTON_WIND WELLINGTON_PRES DS824_LAT DS824_LON DS824_STAGE DS824_WIND DS824_PRES TD9636_LAT TD9636_LON TD9636_STAGE TD9636_WIND TD9636_PRES TD9635_LAT TD9635_LON TD9635_WIND TD9635_PRES TD9635_ROCI NEUMANN_LAT NEUMANN_LON NEUMANN_CLASS NEUMANN_WIND NEUMANN_PRES MLC_LAT MLC_LON MLC_CLASS MLC_WIND MLC_PRES USA_GUST BOM_GUST BOM_GUST_PER REUNION_GUST REUNION_GUST_PER USA_SEAHGT USA_SEARAD_NE USA_SEARAD_SE USA_SEARAD_SW USA_SEARAD_NW STORM_SPEED STORM_DIR
1993279N12114 1993 79 WP MM NOT_NAMED 1993-10-06 00:00:00 NR 12.0000 113.500 main 440 440 O_____________ jtwc_wp WP281993 12.0000 113.500 15 -1 9 78
1993279N12114 1993 79 WP MM NOT_NAMED 1993-10-06 03:00:00 NR 12.0927 113.937 main 481 481 P_____________ WP281993 12.0927 113.937 15 -1 9 77
1993279N12114 1993 79 WP MM NOT_NAMED 1993-10-06 06:00:00 NR 12.2000 114.400 main 500 470 O_____________ jtwc_wp WP281993 12.2000 114.400 15 -1 10 76
1993279N12114 1993 79 WP MM NOT_NAMED 1993-10-06 09:00:00 NR 12.3348 114.913 main 470 446 P_____________ WP281993 12.3348 114.913 15 -1 11 74
1993279N12114 1993 79 WP MM NOT_NAMED 1993-10-06 12:00:00 NR 12.5000 115.500 main 446 392 O_____________ jtwc_wp WP281993 12.5000 115.500 15 -1 13 75
1993279N12114 1993 79 WP MM NOT_NAMED 1993-10-06 15:00:00 NR 12.6775 116.185 main 386 332 P_____________ WP281993 12.6775 116.185 17 -1 14 74
1993279N12114 1993 79 WP MM NOT_NAMED 1993-10-06 18:00:00 NR 12.9000 116.900 main 332 296 O_____________ jtwc_wp WP281993 12.9000 116.900 20 -1 14 70
1993279N12114 1993 79 WP MM NOT_NAMED 1993-10-06 21:00:00 NR 13.1773 117.558 main 293 227 P_____________ WP281993 13.1773 117.558 20 -1 14 65
1993279N12114 1993 79 WP MM NOT_NAMED 1993-10-07 00:00:00 NR 13.5000 118.200 main 227 168 O_____________ jtwc_wp WP281993 13.5000 118.200 20 -1 14 62
1993279N12114 1993 79 WP MM NOT_NAMED 1993-10-07 03:00:00 NR 13.8424 118.858 main 157 93 P_____________ WP281993 13.8424 118.858 22 -1 14 61
1993279N12114 1993 79 WP MM NOT_NAMED 1993-10-07 06:00:00 NR 14.2000 119.500 main 93 24 O_____________ jtwc_wp WP281993 14.2000 119.500 25 -1 14 59
1993279N12114 1993 79 WP MM NOT_NAMED 1993-10-07 09:00:00 NR 14.5573 120.108 main 15 0 P_____________ WP281993 14.5573 120.108 25 -1 14 59
1993279N12114 1993 79 WP MM NOT_NAMED 1993-10-07 12:00:00 NR 14.9000 120.700 main 0 0 O_____________ jtwc_wp WP281993 14.9000 120.700 25 -1 13 61
1993279N12114 1993 79 WP MM NOT_NAMED 1993-10-07 15:00:00 NR 15.2073 121.300 main 0 0 P_____________ WP281993 15.2073 121.300 25 -1 13 63
1993279N12114 1993 79 WP MM NOT_NAMED 1993-10-07 18:00:00 NR 15.5000 121.900 main 39 39 O_____________ jtwc_wp WP281993 15.5000 121.900 25 -1 13 62
1993279N12114 1993 79 WP MM NOT_NAMED 1993-10-07 21:00:00 NR 15.8225 122.522 main 54 54 P_____________ WP281993 15.8225 122.522 25 -1 13 63
1993279N12114 1993 79 WP MM NOT_NAMED 1993-10-08 00:00:00 NR 16.1000 123.100 main 96 96 O_____________ jtwc_wp WP281993 16.1000 123.100 25 -1 11 66
1993279N12114 1993 79 WP MM NOT_NAMED 1993-10-08 03:00:00 NR 16.2874 123.610 main 135 135 P_____________ WP281993 16.2874 123.610 25 -1 9 71
1993279N12114 1993 79 WP MM NOT_NAMED 1993-10-08 06:00:00 NR 16.4000 124.000 main 169 169 O_____________ jtwc_wp WP281993 16.4000 124.000 25 -1 7 73
1993279N12114 1993 79 WP MM NOT_NAMED 1993-10-08 09:00:00 NR 16.4724 124.260 main 196 196 P_____________ WP281993 16.4724 124.260 25 -1 4 75
1993279N12114 1993 79 WP MM NOT_NAMED 1993-10-08 12:00:00 NR 16.5000 124.400 main 207 207 O_____________ jtwc_wp WP281993 16.5000 124.400 25 -1 2 80
1993279N12114 1993 79 WP MM NOT_NAMED 1993-10-08 15:00:00 NR 16.5075 124.473 main 217 217 P_____________ WP281993 16.5075 124.473 25 -1 1 90
1993279N12114 1993 79 WP MM NOT_NAMED 1993-10-08 18:00:00 NR 16.5000 124.500 main 217 217 O_____________ jtwc_wp WP281993 16.5000 124.500 25 -1 1 95
1993279N12114 1993 79 WP MM NOT_NAMED 1993-10-08 21:00:00 NR 16.5000 124.550 main 228 228 P_____________ WP281993 16.5000 124.550 25 -1 1 90
1993279N12114 1993 79 WP MM NOT_NAMED 1993-10-09 00:00:00 NR 16.5000 124.600 main 228 228 O_____________ jtwc_wp WP281993 16.5000 124.600 25 -1 1 90
1993279N12114 1993 79 WP MM NOT_NAMED 1993-10-09 03:00:00 NR 16.5000 124.643 main 228 228 P_____________ WP281993 16.5000 124.643 22 -1 1 90
1993279N12114 1993 79 WP MM NOT_NAMED 1993-10-09 06:00:00 NR 16.5000 124.700 main 238 238 O_____________ jtwc_wp WP281993 16.5000 124.700 20 -1 1 93
1993279N12114 1993 79 WP MM NOT_NAMED 1993-10-09 09:00:00 NR 16.4925 124.793 main 249 249 P_____________ WP281993 16.4925 124.793 20 -1 2 90
1993279N12114 1993 79 WP MM NOT_NAMED 1993-10-09 12:00:00 NR 16.5000 124.900 main 259 259 O_____________ jtwc_wp WP281993 16.5000 124.900 20 -1 2 74
1993279N12114 1993 79 WP MM NOT_NAMED 1993-10-09 15:00:00 NR 16.5500 125.000 main 268 268 P_____________ WP281993 16.5500 125.000 20 -1 2 62
1993279N12114 1993 79 WP MM NOT_NAMED 1993-10-09 18:00:00 NR 16.6000 125.100 main 278 278 O_____________ jtwc_wp WP281993 16.6000 125.100 20 -1 2 80
1993279N12114 1993 79 WP MM NOT_NAMED 1993-10-09 21:00:00 NR 16.5850 125.208 main 289 289 P_____________ WP281993 16.5850 125.208 20 -1 2 90
1993279N12114 1993 79 WP MM NOT_NAMED 1993-10-10 00:00:00 NR 16.6000 125.300 main 300 298 O_____________ jtwc_wp WP281993 16.6000 125.300 20 -1 2 50
1993279N12114 1993 79 WP MM NOT_NAMED 1993-10-10 03:00:00 NR 16.7200 125.372 main 309 308 P_____________ WP281993 16.7200 125.372 20 -1 3 17
1993279N12114 1993 79 WP MM NOT_NAMED 1993-10-10 06:00:00 NR 16.9000 125.400 main 308 308 O_____________ jtwc_wp WP281993 16.9000 125.400 20 -1 4 4
1993279N12114 1993 79 WP MM NOT_NAMED 1993-10-10 09:00:00 NR 17.0924 125.395 main 308 298 P_____________ WP281993 17.0924 125.395 20 -1 4 347
1993279N12114 1993 79 WP MM NOT_NAMED 1993-10-10 12:00:00 NR 17.3000 125.300 main 299 279 O_____________ jtwc_wp WP281993 17.3000 125.300 20 -1 5 323
1993279N12114 1993 79 WP MM NOT_NAMED 1993-10-10 15:00:00 NR 17.4775 125.095 main 281 256 P_____________ WP281993 17.4775 125.095 20 -1 6 310
1993279N12114 1993 79 WP MM NOT_NAMED 1993-10-10 18:00:00 NR 17.7000 124.800 main 256 234 O_____________ jtwc_wp WP281993 17.7000 124.800 20 -1 8 313
1993279N12114 1993 79 WP MM NOT_NAMED 1993-10-10 21:00:00 NR 18.0199 124.480 main 234 189 P_____________ WP281993 18.0199 124.480 20 -1 10 316
1993279N12114 1993 79 WP MM NOT_NAMED 1993-10-11 00:00:00 NR 18.4000 124.100 main 189 154 O_____________ jtwc_wp WP281993 18.4000 124.100 20 -1 11 317
1993279N12114 1993 79 WP MM NOT_NAMED 1993-10-11 03:00:00 NR 18.8147 123.695 main 154 109 P_____________ WP281993 18.8147 123.695 20 -1 15 306
1993279N12114 1993 79 WP MM NOT_NAMED 1993-10-11 06:00:00 TS 19.2600 122.860 main 118 109 O_O___________ jtwc_wp WP281993 19.2000 123.200 20 -1 19.5000 121.500 1 23 1010 15 296
1993279N12114 1993 79 WP MM NOT_NAMED 1993-10-11 09:00:00 TS 19.4824 122.269 main 123 123 P_P___________ WP281993 19.4875 122.587 20 -1 19.4722 121.632 1 26 1009 11 288
1993279N12114 1993 79 WP MM NOT_NAMED 1993-10-11 12:00:00 TS 19.6143 121.729 main 127 124 O_O___________ jtwc_wp WP281993 19.7000 121.900 20 -1 19.5000 121.500 1 29 1008 12 283
1993279N12114 1993 79 WP MM NOT_NAMED 1993-10-11 15:00:00 TS 19.7465 121.070 main 124 124 P_P___________ WP281993 19.8724 121.200 20 -1 19.6205 120.940 1 29 1008 13 282
1993279N12114 1993 79 WP MM NOT_NAMED 1993-10-11 18:00:00 TS 19.9000 120.350 main 151 151 O_O___________ jtwc_wp WP281993 20.0000 120.500 20 -1 19.8000 120.200 1 29 1008 13 283
1993279N12114 1993 79 WP MM NOT_NAMED 1993-10-11 21:00:00 TS 20.0498 119.706 main 194 194 P_P___________ WP281993 20.0998 119.827 22 -1 19.9998 119.585 1 29 1008 13 285
1993279N12114 1993 79 WP MM NOT_NAMED 1993-10-12 00:00:00 TS 20.2333 119.044 main 259 251 O_OO__________ jtwc_wp WP281993 20.2000 119.200 25 -1 20.2000 119.000 1 29 1008 20.5000 118.600 TD 25 1008 12 286
1993279N12114 1993 79 WP MM NOT_NAMED 1993-10-12 03:00:00 TS 20.3905 118.451 main 283 283 P_PP__________ WP281993 20.3423 118.620 25 -1 20.3575 118.412 1 29 1007 20.5527 118.190 TD 25 1008 11 286
1993279N12114 1993 79 WP MM NOT_NAMED 1993-10-12 06:00:00 TS 20.5273 117.945 main 304 281 O_OO__________ jtwc_wp WP281993 20.5000 118.100 25 -1 20.5000 117.900 1 29 1006 20.6000 117.800 TD 25 1008 9 287
1993279N12114 1993 79 WP MM NOT_NAMED 1993-10-12 09:00:00 TS 20.6523 117.532 main 266 245 P_PP__________ WP281993 20.6498 117.627 25 -1 20.6647 117.527 1 29 1006 20.6424 117.442 TD 25 1008 8 288
1993279N12114 1993 79 WP MM NOT_NAMED 1993-10-12 12:00:00 TS 20.7667 117.167 main 245 224 O_OO__________ jtwc_wp WP281993 20.8000 117.200 25 -1 20.8000 117.200 1 29 1006 20.7000 117.100 TD 25 1008 7 286
1993279N12114 1993 79 WP MM NOT_NAMED 1993-10-12 15:00:00 TS 20.8616 116.776 main 224 199 P_PP__________ WP281993 20.9499 116.785 25 -1 20.8501 116.792 1 29 1006 20.7849 116.750 TD 25 1008 7 286
1993279N12114 1993 79 WP MM NOT_NAMED 1993-10-12 18:00:00 TS 20.9667 116.400 main 199 181 O_OO__________ jtwc_wp WP281993 21.1000 116.400 25 -1 20.9000 116.400 1 29 1006 20.9000 116.400 TD 25 1008 7 290
1993279N12114 1993 79 WP MM NOT_NAMED 1993-10-12 21:00:00 TS 21.0990 116.062 main 181 156 P_PP__________ WP281993 21.2424 116.042 25 -1 21.0273 116.100 1 29 1006 21.0275 116.042 TD 25 1008 7 296
1993279N12114 1993 79 WP MM NOT_NAMED 1993-10-13 00:00:00 TS 21.2727 115.736 main 156 123 O_OO__________ jtwc_wp WP281993 21.4000 115.700 25 -1 21.2000 115.800 1 29 1006 21.2000 115.700 TD 25 1008 7 301
1993279N12114 1993 79 WP MM NOT_NAMED 1993-10-13 03:00:00 TS 21.4714 115.390 main 123 90 P_PP__________ WP281993 21.5698 115.365 25 -1 21.3925 115.415 1 29 1006 21.4326 115.390 TD 25 1008 8 302
1993279N12114 1993 79 WP MM NOT_NAMED 1993-10-13 06:00:00 TS 21.6875 115.013 main 90 54 O_OO__________ jtwc_wp WP281993 21.8000 115.000 25 -1 21.6000 115.000 1 29 1006 21.7000 115.100 TD 25 1008 9 298
1993279N12114 1993 79 WP MM NOT_NAMED 1993-10-13 09:00:00 TS 21.8777 114.560 main 54 24 P_P___________ WP281993 22.1228 114.571 22 -1 21.7551 114.555 1 29 1007 TD 9 299
1993279N12114 1993 79 WP MM NOT_NAMED 1993-10-13 12:00:00 TS 22.1250 114.175 main 24 0 O_O___________ jtwc_wp WP281993 22.5000 114.100 20 -1 22.0000 114.200 1 29 1008 7 319
1993279N12114 1993 79 WP MM NOT_NAMED 1993-10-13 15:00:00 TS 22.4399 114.040 main 0 0 __P___________ WP281993 -1 22.4399 114.040 1 26 1009 9 349
1993279N12114 1993 79 WP MM NOT_NAMED 1993-10-13 18:00:00 TS 23.0000 114.000 main 0 __O___________ -1 23.0000 114.000 1 23 1010 11 357

デジタル台風データ・検索

IBTrACS Databaseについて

本データベースは、米国NOAAが公開する1842年以降の世界の熱帯低気圧のベストトラックデータアーカイブInternational Best Track Archive for Climate Stewardship (IBTrACS)を、ウェブで閲覧しやすい形式に変換したものです。

最終更新日:2021-10-08